sensor_id;sensor_type;location;lat;lon;timestamp;pressure;altitude;pressure_sealevel;temperature;humidity
9905;BME280;4991;43.566;27.820;2023-08-31T00:00:48;98068.88;;;24.21;100.00
9905;BME280;4991;43.566;27.820;2023-08-31T00:03:16;98067.75;;;24.18;100.00
9905;BME280;4991;43.566;27.820;2023-08-31T00:05:43;98059.38;;;24.18;100.00
9905;BME280;4991;43.566;27.820;2023-08-31T00:08:09;98046.34;;;24.12;100.00
9905;BME280;4991;43.566;27.820;2023-08-31T00:10:37;98039.97;;;24.11;100.00
9905;BME280;4991;43.566;27.820;2023-08-31T00:13:03;98038.00;;;24.12;100.00
9905;BME280;4991;43.566;27.820;2023-08-31T00:15:29;98045.56;;;24.08;100.00
9905;BME280;4991;43.566;27.820;2023-08-31T00:17:55;98051.97;;;24.01;100.00
9905;BME280;4991;43.566;27.820;2023-08-31T00:20:20;98049.22;;;23.98;100.00
9905;BME280;4991;43.566;27.820;2023-08-31T00:22:47;98045.97;;;24.06;100.00
9905;BME280;4991;43.566;27.820;2023-08-31T00:25:13;98057.91;;;24.07;100.00
9905;BME280;4991;43.566;27.820;2023-08-31T00:27:39;98061.78;;;24.16;100.00
9905;BME280;4991;43.566;27.820;2023-08-31T00:30:06;98065.41;;;24.10;100.00
9905;BME280;4991;43.566;27.820;2023-08-31T00:32:37;98059.91;;;24.03;100.00
9905;BME280;4991;43.566;27.820;2023-08-31T00:35:05;98063.50;;;24.00;100.00
9905;BME280;4991;43.566;27.820;2023-08-31T00:37:31;98063.50;;;24.03;100.00
9905;BME280;4991;43.566;27.820;2023-08-31T00:39:56;98071.09;;;23.96;100.00
9905;BME280;4991;43.566;27.820;2023-08-31T00:42:22;98069.50;;;23.98;100.00
9905;BME280;4991;43.566;27.820;2023-08-31T00:44:48;98076.69;;;23.92;100.00
9905;BME280;4991;43.566;27.820;2023-08-31T00:47:14;98081.06;;;23.86;100.00
9905;BME280;4991;43.566;27.820;2023-08-31T00:49:40;98089.75;;;23.95;100.00
9905;BME280;4991;43.566;27.820;2023-08-31T00:52:07;98089.38;;;23.93;100.00
9905;BME280;4991;43.566;27.820;2023-08-31T00:54:33;98084.25;;;23.88;100.00
9905;BME280;4991;43.566;27.820;2023-08-31T00:56:59;98095.84;;;23.73;100.00
9905;BME280;4991;43.566;27.820;2023-08-31T00:59:25;98102.31;;;23.59;100.00
9905;BME280;4991;43.566;27.820;2023-08-31T01:02:07;98091.31;;;23.38;100.00
9905;BME280;4991;43.566;27.820;2023-08-31T01:04:49;98090.56;;;23.20;100.00
9905;BME280;4991;43.566;27.820;2023-08-31T01:07:34;98093.41;;;23.06;100.00
9905;BME280;4991;43.566;27.820;2023-08-31T01:10:06;98090.66;;;23.06;100.00
9905;BME280;4991;43.566;27.820;2023-08-31T01:15:11;98101.38;;;22.93;100.00
9905;BME280;4991;43.566;27.820;2023-08-31T01:17:42;98107.34;;;22.92;100.00
9905;BME280;4991;43.566;27.820;2023-08-31T01:20:10;98110.91;;;22.92;100.00
9905;BME280;4991;43.566;27.820;2023-08-31T01:22:59;98108.13;;;22.96;100.00
9905;BME280;4991;43.566;27.820;2023-08-31T01:25:26;98111.66;;;23.03;100.00
9905;BME280;4991;43.566;27.820;2023-08-31T01:27:51;98116.06;;;23.01;100.00
9905;BME280;4991;43.566;27.820;2023-08-31T01:30:20;98125.63;;;22.89;100.00
9905;BME280;4991;43.566;27.820;2023-08-31T01:32:50;98125.22;;;22.84;100.00
9905;BME280;4991;43.566;27.820;2023-08-31T01:35:18;98130.78;;;22.84;100.00
9905;BME280;4991;43.566;27.820;2023-08-31T01:37:59;98131.59;;;22.81;100.00
9905;BME280;4991;43.566;27.820;2023-08-31T01:40:34;98133.56;;;22.77;100.00
9905;BME280;4991;43.566;27.820;2023-08-31T01:43:01;98135.16;;;22.81;100.00
9905;BME280;4991;43.566;27.820;2023-08-31T01:45:29;98135.94;;;22.78;100.00
9905;BME280;4991;43.566;27.820;2023-08-31T01:47:55;98139.50;;;22.72;100.00
9905;BME280;4991;43.566;27.820;2023-08-31T01:50:21;98136.75;;;22.75;100.00
9905;BME280;4991;43.566;27.820;2023-08-31T01:52:47;98137.53;;;22.69;100.00
9905;BME280;4991;43.566;27.820;2023-08-31T01:55:12;98135.22;;;22.53;100.00
9905;BME280;4991;43.566;27.820;2023-08-31T01:57:41;98136.75;;;22.44;100.00
9905;BME280;4991;43.566;27.820;2023-08-31T02:00:10;98131.63;;;22.28;100.00
9905;BME280;4991;43.566;27.820;2023-08-31T02:02:36;98136.78;;;22.26;100.00
9905;BME280;4991;43.566;27.820;2023-08-31T02:05:02;98130.41;;;22.29;100.00
9905;BME280;4991;43.566;27.820;2023-08-31T02:07:30;98129.63;;;22.29;100.00
9905;BME280;4991;43.566;27.820;2023-08-31T02:09:55;98117.75;;;22.18;100.00
9905;BME280;4991;43.566;27.820;2023-08-31T02:12:21;98126.84;;;22.15;100.00
9905;BME280;4991;43.566;27.820;2023-08-31T02:14:47;98132.41;;;22.22;100.00
9905;BME280;4991;43.566;27.820;2023-08-31T02:17:12;98127.25;;;22.17;100.00
9905;BME280;4991;43.566;27.820;2023-08-31T02:19:38;98127.25;;;22.24;100.00
9905;BME280;4991;43.566;27.820;2023-08-31T02:22:04;98126.84;;;22.11;100.00
9905;BME280;4991;43.566;27.820;2023-08-31T02:24:29;98126.47;;;22.20;100.00
9905;BME280;4991;43.566;27.820;2023-08-31T02:26:55;98123.28;;;22.35;100.00
9905;BME280;4991;43.566;27.820;2023-08-31T02:29:21;98116.94;;;22.35;100.00
9905;BME280;4991;43.566;27.820;2023-08-31T02:31:47;98122.09;;;22.26;100.00
9905;BME280;4991;43.566;27.820;2023-08-31T02:34:12;98120.13;;;22.37;100.00
9905;BME280;4991;43.566;27.820;2023-08-31T02:36:38;98121.69;;;22.38;100.00
9905;BME280;4991;43.566;27.820;2023-08-31T02:39:04;98126.44;;;22.41;100.00
9905;BME280;4991;43.566;27.820;2023-08-31T02:41:29;98135.97;;;22.61;100.00
9905;BME280;4991;43.566;27.820;2023-08-31T02:43:55;98133.56;;;22.52;100.00
9905;BME280;4991;43.566;27.820;2023-08-31T02:46:20;98132.78;;;22.38;100.00
9905;BME280;4991;43.566;27.820;2023-08-31T02:48:46;98122.88;;;22.40;100.00
9905;BME280;4991;43.566;27.820;2023-08-31T02:51:13;98122.88;;;22.51;100.00
9905;BME280;4991;43.566;27.820;2023-08-31T02:53:38;98126.06;;;22.49;100.00
9905;BME280;4991;43.566;27.820;2023-08-31T02:56:10;98128.44;;;22.58;100.00
9905;BME280;4991;43.566;27.820;2023-08-31T02:58:35;98137.94;;;22.67;100.00
9905;BME280;4991;43.566;27.820;2023-08-31T03:01:09;98129.97;;;22.80;100.00
9905;BME280;4991;43.566;27.820;2023-08-31T03:03:37;98135.56;;;22.76;100.00
9905;BME280;4991;43.566;27.820;2023-08-31T03:06:03;98128.81;;;22.77;100.00
9905;BME280;4991;43.566;27.820;2023-08-31T03:08:32;98125.28;;;22.66;100.00
9905;BME280;4991;43.566;27.820;2023-08-31T03:10:58;98128.03;;;22.52;100.00
9905;BME280;4991;43.566;27.820;2023-08-31T03:13:24;98129.63;;;22.64;100.00
9905;BME280;4991;43.566;27.820;2023-08-31T03:15:50;98129.63;;;22.71;100.00
9905;BME280;4991;43.566;27.820;2023-08-31T03:18:26;98121.34;;;22.53;100.00
9905;BME280;4991;43.566;27.820;2023-08-31T03:20:54;98136.34;;;22.42;100.00
9905;BME280;4991;43.566;27.820;2023-08-31T03:23:20;98129.63;;;22.43;100.00
9905;BME280;4991;43.566;27.820;2023-08-31T03:25:49;98132.41;;;22.46;100.00
9905;BME280;4991;43.566;27.820;2023-08-31T03:28:21;98132.81;;;22.45;100.00
9905;BME280;4991;43.566;27.820;2023-08-31T03:30:57;98132.03;;;22.55;100.00
9905;BME280;4991;43.566;27.820;2023-08-31T03:33:23;98136.38;;;22.59;100.00
9905;BME280;4991;43.566;27.820;2023-08-31T03:35:49;98132.78;;;22.66;100.00
9905;BME280;4991;43.566;27.820;2023-08-31T03:38:14;98134.78;;;22.69;100.00
9905;BME280;4991;43.566;27.820;2023-08-31T03:40:40;98135.16;;;22.78;100.00
9905;BME280;4991;43.566;27.820;2023-08-31T03:43:06;98139.09;;;22.84;100.00
9905;BME280;4991;43.566;27.820;2023-08-31T03:45:34;98139.91;;;22.81;100.00
9905;BME280;4991;43.566;27.820;2023-08-31T03:48:00;98141.88;;;22.73;100.00
9905;BME280;4991;43.566;27.820;2023-08-31T03:50:25;98146.69;;;22.66;100.00
9905;BME280;4991;43.566;27.820;2023-08-31T03:52:51;98146.66;;;22.76;100.00
9905;BME280;4991;43.566;27.820;2023-08-31T03:55:17;98145.88;;;22.76;100.00
9905;BME280;4991;43.566;27.820;2023-08-31T03:57:43;98141.88;;;22.84;100.00
9905;BME280;4991;43.566;27.820;2023-08-31T04:00:08;98147.44;;;22.84;100.00
9905;BME280;4991;43.566;27.820;2023-08-31T04:02:35;98138.75;;;22.75;100.00
9905;BME280;4991;43.566;27.820;2023-08-31T04:05:02;98139.50;;;22.89;100.00
9905;BME280;4991;43.566;27.820;2023-08-31T04:07:37;98150.19;;;22.94;100.00
9905;BME280;4991;43.566;27.820;2023-08-31T04:10:03;98153.38;;;22.93;100.00
9905;BME280;4991;43.566;27.820;2023-08-31T04:12:29;98156.91;;;22.93;100.00
9905;BME280;4991;43.566;27.820;2023-08-31T04:14:56;98151.38;;;22.97;100.00
9905;BME280;4991;43.566;27.820;2023-08-31T04:17:21;98162.88;;;22.92;100.00
9905;BME280;4991;43.566;27.820;2023-08-31T04:19:47;98158.94;;;22.93;100.00
9905;BME280;4991;43.566;27.820;2023-08-31T04:22:15;98164.06;;;22.94;100.00
9905;BME280;4991;43.566;27.820;2023-08-31T04:24:42;98176.38;;;22.93;100.00
9905;BME280;4991;43.566;27.820;2023-08-31T04:27:07;98172.78;;;23.00;100.00
9905;BME280;4991;43.566;27.820;2023-08-31T04:29:33;98171.59;;;22.97;100.00
9905;BME280;4991;43.566;27.820;2023-08-31T04:31:59;98184.31;;;22.84;100.00
9905;BME280;4991;43.566;27.820;2023-08-31T04:34:24;98181.56;;;22.77;100.00
9905;BME280;4991;43.566;27.820;2023-08-31T04:36:50;98186.34;;;22.66;100.00
9905;BME280;4991;43.566;27.820;2023-08-31T04:39:16;98190.66;;;22.85;100.00
9905;BME280;4991;43.566;27.820;2023-08-31T04:41:41;98194.63;;;22.77;100.00
9905;BME280;4991;43.566;27.820;2023-08-31T04:44:07;98199.38;;;22.83;100.00
9905;BME280;4991;43.566;27.820;2023-08-31T04:46:33;98204.13;;;22.90;100.00
9905;BME280;4991;43.566;27.820;2023-08-31T04:48:59;98202.97;;;22.94;100.00
9905;BME280;4991;43.566;27.820;2023-08-31T04:51:35;98211.25;;;23.05;100.00
9905;BME280;4991;43.566;27.820;2023-08-31T04:54:03;98205.34;;;22.96;100.00
9905;BME280;4991;43.566;27.820;2023-08-31T04:56:31;98213.66;;;22.92;100.00
9905;BME280;4991;43.566;27.820;2023-08-31T04:59:00;98218.44;;;22.81;100.00
9905;BME280;4991;43.566;27.820;2023-08-31T05:01:26;98215.28;;;22.83;100.00
9905;BME280;4991;43.566;27.820;2023-08-31T05:03:52;98225.97;;;22.74;100.00
9905;BME280;4991;43.566;27.820;2023-08-31T05:06:18;98224.00;;;22.64;100.00
9905;BME280;4991;43.566;27.820;2023-08-31T05:08:43;98217.66;;;22.56;100.00
9905;BME280;4991;43.566;27.820;2023-08-31T05:11:09;98225.13;;;22.45;100.00
9905;BME280;4991;43.566;27.820;2023-08-31T05:13:34;98231.91;;;22.58;100.00
9905;BME280;4991;43.566;27.820;2023-08-31T05:16:00;98240.66;;;22.64;100.00
9905;BME280;4991;43.566;27.820;2023-08-31T05:18:26;98239.44;;;22.72;100.00
9905;BME280;4991;43.566;27.820;2023-08-31T05:20:51;98241.44;;;22.64;100.00
9905;BME280;4991;43.566;27.820;2023-08-31T05:23:19;98241.78;;;22.49;100.00
9905;BME280;4991;43.566;27.820;2023-08-31T05:25:44;98244.97;;;22.47;100.00
9905;BME280;4991;43.566;27.820;2023-08-31T05:28:10;98252.13;;;22.55;100.00
9905;BME280;4991;43.566;27.820;2023-08-31T05:30:36;98254.09;;;22.51;100.00
9905;BME280;4991;43.566;27.820;2023-08-31T05:33:04;98258.84;;;22.47;100.00
9905;BME280;4991;43.566;27.820;2023-08-31T05:35:30;98257.28;;;22.50;100.00
9905;BME280;4991;43.566;27.820;2023-08-31T05:37:55;98256.88;;;22.51;100.00
9905;BME280;4991;43.566;27.820;2023-08-31T05:40:21;98266.00;;;22.55;100.00
9905;BME280;4991;43.566;27.820;2023-08-31T05:42:47;98271.19;;;22.78;100.00
9905;BME280;4991;43.566;27.820;2023-08-31T05:45:12;98270.38;;;22.53;100.00
9905;BME280;4991;43.566;27.820;2023-08-31T05:47:40;98273.97;;;22.53;100.00
9905;BME280;4991;43.566;27.820;2023-08-31T05:50:06;98282.22;;;22.39;100.00
9905;BME280;4991;43.566;27.820;2023-08-31T05:52:35;98284.63;;;22.48;100.00
9905;BME280;4991;43.566;27.820;2023-08-31T05:55:01;98286.66;;;22.58;100.00
9905;BME280;4991;43.566;27.820;2023-08-31T05:57:26;98287.81;;;22.57;100.00
9905;BME280;4991;43.566;27.820;2023-08-31T05:59:55;98286.66;;;22.61;100.00
9905;BME280;4991;43.566;27.820;2023-08-31T06:02:21;98286.25;;;22.80;100.00
9905;BME280;4991;43.566;27.820;2023-08-31T06:04:46;98288.25;;;22.90;100.00
9905;BME280;4991;43.566;27.820;2023-08-31T06:07:12;98293.41;;;22.92;100.00
9905;BME280;4991;43.566;27.820;2023-08-31T06:09:38;98300.53;;;23.03;100.00
9905;BME280;4991;43.566;27.820;2023-08-31T06:12:05;98302.91;;;23.05;100.00
9905;BME280;4991;43.566;27.820;2023-08-31T06:14:31;98302.94;;;22.87;100.00
9905;BME280;4991;43.566;27.820;2023-08-31T06:17:06;98310.84;;;23.07;100.00
9905;BME280;4991;43.566;27.820;2023-08-31T06:19:31;98313.63;;;23.10;100.00
9905;BME280;4991;43.566;27.820;2023-08-31T06:21:58;98318.00;;;23.00;100.00
9905;BME280;4991;43.566;27.820;2023-08-31T06:24:23;98306.09;;;22.96;100.00
9905;BME280;4991;43.566;27.820;2023-08-31T06:26:49;98319.97;;;23.03;100.00
9905;BME280;4991;43.566;27.820;2023-08-31T06:29:15;98314.03;;;23.09;100.00
9905;BME280;4991;43.566;27.820;2023-08-31T06:31:40;98325.53;;;22.93;100.00
9905;BME280;4991;43.566;27.820;2023-08-31T06:34:06;98330.31;;;22.99;100.00
9905;BME280;4991;43.566;27.820;2023-08-31T06:36:32;98330.28;;;23.24;100.00
9905;BME280;4991;43.566;27.820;2023-08-31T06:38:58;98341.00;;;23.22;100.00
9905;BME280;4991;43.566;27.820;2023-08-31T06:41:23;98340.63;;;23.38;100.00
9905;BME280;4991;43.566;27.820;2023-08-31T06:43:49;98350.16;;;23.40;100.00
9905;BME280;4991;43.566;27.820;2023-08-31T06:46:15;98349.75;;;23.52;100.00
9905;BME280;4991;43.566;27.820;2023-08-31T06:48:40;98339.81;;;23.44;100.00
9905;BME280;4991;43.566;27.820;2023-08-31T06:51:09;98341.41;;;23.38;100.00
9905;BME280;4991;43.566;27.820;2023-08-31T06:53:34;98352.50;;;23.52;100.00
9905;BME280;4991;43.566;27.820;2023-08-31T06:56:01;98343.38;;;23.59;100.00
9905;BME280;4991;43.566;27.820;2023-08-31T06:58:28;98353.31;;;23.53;100.00
9905;BME280;4991;43.566;27.820;2023-08-31T07:00:55;98350.88;;;23.76;100.00
9905;BME280;4991;43.566;27.820;2023-08-31T07:03:22;98360.38;;;23.89;100.00
9905;BME280;4991;43.566;27.820;2023-08-31T07:05:49;98355.91;;;24.16;100.00
9905;BME280;4991;43.566;27.820;2023-08-31T07:08:16;98359.03;;;24.36;100.00
9905;BME280;4991;43.566;27.820;2023-08-31T07:10:41;98360.47;;;24.61;100.00
9905;BME280;4991;43.566;27.820;2023-08-31T07:13:07;98372.00;;;24.63;100.00
9905;BME280;4991;43.566;27.820;2023-08-31T07:15:34;98365.59;;;24.77;100.00
9905;BME280;4991;43.566;27.820;2023-08-31T07:18:01;98369.19;;;24.67;100.00
9905;BME280;4991;43.566;27.820;2023-08-31T07:20:28;98359.16;;;24.83;100.00
9905;BME280;4991;43.566;27.820;2023-08-31T07:22:54;98359.50;;;24.92;100.00
9905;BME280;4991;43.566;27.820;2023-08-31T07:25:20;98359.38;;;25.10;100.00
9905;BME280;4991;43.566;27.820;2023-08-31T07:27:46;98365.63;;;25.24;100.00
9905;BME280;4991;43.566;27.820;2023-08-31T07:30:12;98371.56;;;25.30;100.00
9905;BME280;4991;43.566;27.820;2023-08-31T07:32:37;98360.09;;;25.65;100.00
9905;BME280;4991;43.566;27.820;2023-08-31T07:35:04;98357.31;;;25.65;100.00
9905;BME280;4991;43.566;27.820;2023-08-31T07:37:31;98364.53;;;25.59;100.00
9905;BME280;4991;43.566;27.820;2023-08-31T07:39:56;98359.53;;;25.43;100.00
9905;BME280;4991;43.566;27.820;2023-08-31T07:42:22;98362.44;;;25.70;100.00
9905;BME280;4991;43.566;27.820;2023-08-31T07:44:48;98347.22;;;25.78;100.00
9905;BME280;4991;43.566;27.820;2023-08-31T07:47:14;98336.84;;;25.75;100.00
9905;BME280;4991;43.566;27.820;2023-08-31T07:49:40;98341.38;;;25.62;100.00
9905;BME280;4991;43.566;27.820;2023-08-31T07:52:07;98342.19;;;25.63;100.00
9905;BME280;4991;43.566;27.820;2023-08-31T07:54:35;98350.09;;;25.68;100.00
9905;BME280;4991;43.566;27.820;2023-08-31T07:57:01;98348.00;;;25.75;100.00
9905;BME280;4991;43.566;27.820;2023-08-31T07:59:27;98347.00;;;25.96;100.00
9905;BME280;4991;43.566;27.820;2023-08-31T08:01:55;98341.28;;;26.10;100.00
9905;BME280;4991;43.566;27.820;2023-08-31T08:04:21;98346.72;;;25.87;100.00
9905;BME280;4991;43.566;27.820;2023-08-31T08:06:49;98344.00;;;25.80;100.00
9905;BME280;4991;43.566;27.820;2023-08-31T08:09:16;98360.13;;;25.62;100.00
9905;BME280;4991;43.566;27.820;2023-08-31T08:11:43;98362.78;;;25.72;100.00
9905;BME280;4991;43.566;27.820;2023-08-31T08:14:09;98357.19;;;26.13;100.00
9905;BME280;4991;43.566;27.820;2023-08-31T08:16:35;98351.78;;;25.95;100.00
9905;BME280;4991;43.566;27.820;2023-08-31T08:19:01;98350.63;;;25.93;100.00
9905;BME280;4991;43.566;27.820;2023-08-31T08:21:27;98351.31;;;26.00;100.00
9905;BME280;4991;43.566;27.820;2023-08-31T08:23:52;98358.13;;;26.03;100.00
9905;BME280;4991;43.566;27.820;2023-08-31T08:26:20;98352.47;;;26.10;100.00
9905;BME280;4991;43.566;27.820;2023-08-31T08:28:46;98343.31;;;26.06;100.00
9905;BME280;4991;43.566;27.820;2023-08-31T08:31:12;98344.59;;;26.01;100.00
9905;BME280;4991;43.566;27.820;2023-08-31T08:33:38;98344.25;;;25.92;100.00
9905;BME280;4991;43.566;27.820;2023-08-31T08:36:04;98344.41;;;26.15;100.00
9905;BME280;4991;43.566;27.820;2023-08-31T08:38:30;98354.34;;;26.20;100.00
9905;BME280;4991;43.566;27.820;2023-08-31T08:40:57;98356.03;;;26.10;100.00
9905;BME280;4991;43.566;27.820;2023-08-31T08:43:26;98342.78;;;26.18;100.00
9905;BME280;4991;43.566;27.820;2023-08-31T08:45:53;98344.78;;;26.17;100.00
9905;BME280;4991;43.566;27.820;2023-08-31T08:48:20;98346.69;;;26.24;100.00
9905;BME280;4991;43.566;27.820;2023-08-31T08:50:46;98348.03;;;26.42;100.00
9905;BME280;4991;43.566;27.820;2023-08-31T08:53:11;98355.84;;;26.24;100.00
9905;BME280;4991;43.566;27.820;2023-08-31T08:55:41;98357.38;;;26.29;100.00
9905;BME280;4991;43.566;27.820;2023-08-31T08:58:06;98358.66;;;26.24;100.00
9905;BME280;4991;43.566;27.820;2023-08-31T09:00:33;98359.66;;;26.37;100.00
9905;BME280;4991;43.566;27.820;2023-08-31T09:03:01;98354.63;;;26.55;100.00
9905;BME280;4991;43.566;27.820;2023-08-31T09:05:32;98359.13;;;26.80;100.00
9905;BME280;4991;43.566;27.820;2023-08-31T09:08:08;98355.44;;;26.86;100.00
9905;BME280;4991;43.566;27.820;2023-08-31T09:10:42;98350.63;;;26.87;100.00
9905;BME280;4991;43.566;27.820;2023-08-31T09:13:13;98359.38;;;26.89;100.00
9905;BME280;4991;43.566;27.820;2023-08-31T09:15:42;98370.69;;;27.05;100.00
9905;BME280;4991;43.566;27.820;2023-08-31T09:18:29;98366.59;;;27.13;100.00
9905;BME280;4991;43.566;27.820;2023-08-31T09:20:57;98371.53;;;27.28;100.00
9905;BME280;4991;43.566;27.820;2023-08-31T09:23:23;98367.66;;;27.45;100.00
9905;BME280;4991;43.566;27.820;2023-08-31T09:25:54;98371.13;;;27.53;100.00
9905;BME280;4991;43.566;27.820;2023-08-31T09:28:22;98361.16;;;27.52;100.00
9905;BME280;4991;43.566;27.820;2023-08-31T09:30:50;98366.38;;;27.50;100.00
9905;BME280;4991;43.566;27.820;2023-08-31T09:33:18;98360.13;;;27.65;100.00
9905;BME280;4991;43.566;27.820;2023-08-31T09:36:06;98374.03;;;28.12;100.00
9905;BME280;4991;43.566;27.820;2023-08-31T09:38:44;98369.16;;;28.55;100.00
9905;BME280;4991;43.566;27.820;2023-08-31T09:41:10;98371.31;;;29.51;100.00
9905;BME280;4991;43.566;27.820;2023-08-31T09:43:35;98363.81;;;30.62;100.00
9905;BME280;4991;43.566;27.820;2023-08-31T09:46:04;98354.97;;;32.07;100.00
9905;BME280;4991;43.566;27.820;2023-08-31T09:48:31;98362.25;;;32.60;100.00
9905;BME280;4991;43.566;27.820;2023-08-31T09:51:01;98363.56;;;32.25;100.00
9905;BME280;4991;43.566;27.820;2023-08-31T09:53:29;98372.25;;;33.05;100.00
9905;BME280;4991;43.566;27.820;2023-08-31T09:55:57;98372.00;;;34.15;100.00
9905;BME280;4991;43.566;27.820;2023-08-31T09:58:24;98370.75;;;35.11;100.00
9905;BME280;4991;43.566;27.820;2023-08-31T10:00:52;98388.31;;;34.74;100.00
9905;BME280;4991;43.566;27.820;2023-08-31T10:03:18;98378.75;;;34.44;100.00
9905;BME280;4991;43.566;27.820;2023-08-31T10:05:48;98378.44;;;34.51;100.00
9905;BME280;4991;43.566;27.820;2023-08-31T10:08:15;98380.47;;;34.33;100.00
9905;BME280;4991;43.566;27.820;2023-08-31T10:10:41;98380.44;;;33.78;100.00
9905;BME280;4991;43.566;27.820;2023-08-31T10:13:07;98384.53;;;33.59;100.00
9905;BME280;4991;43.566;27.820;2023-08-31T10:15:35;98387.38;;;33.29;100.00
9905;BME280;4991;43.566;27.820;2023-08-31T10:18:02;98381.38;;;32.87;100.00
9905;BME280;4991;43.566;27.820;2023-08-31T10:20:30;98387.94;;;33.45;100.00
9905;BME280;4991;43.566;27.820;2023-08-31T10:23:05;98380.97;;;34.40;100.00
9905;BME280;4991;43.566;27.820;2023-08-31T10:28:24;98382.28;;;34.81;100.00
9905;BME280;4991;43.566;27.820;2023-08-31T10:31:14;98400.56;;;33.80;100.00
9905;BME280;4991;43.566;27.820;2023-08-31T10:34:01;98390.59;;;33.49;100.00
9905;BME280;4991;43.566;27.820;2023-08-31T10:36:37;98379.50;;;31.98;100.00
9905;BME280;4991;43.566;27.820;2023-08-31T10:39:10;98385.78;;;32.02;100.00
9905;BME280;4991;43.566;27.820;2023-08-31T10:41:37;98383.94;;;31.74;100.00
9905;BME280;4991;43.566;27.820;2023-08-31T10:44:18;98386.31;;;31.63;100.00
9905;BME280;4991;43.566;27.820;2023-08-31T10:46:44;98374.91;;;31.32;100.00
9905;BME280;4991;43.566;27.820;2023-08-31T10:54:22;98378.06;;;30.43;100.00
9905;BME280;4991;43.566;27.820;2023-08-31T10:57:04;98387.38;;;30.11;100.00
9905;BME280;4991;43.566;27.820;2023-08-31T11:02:43;98376.81;;;30.15;100.00
9905;BME280;4991;43.566;27.820;2023-08-31T11:05:14;98381.53;;;30.18;100.00
9905;BME280;4991;43.566;27.820;2023-08-31T11:07:41;98370.78;;;30.58;100.00
9905;BME280;4991;43.566;27.820;2023-08-31T11:10:17;98362.16;;;30.90;100.00
9905;BME280;4991;43.566;27.820;2023-08-31T11:12:46;98361.94;;;30.97;100.00
9905;BME280;4991;43.566;27.820;2023-08-31T11:15:17;98354.94;;;30.76;100.00
9905;BME280;4991;43.566;27.820;2023-08-31T11:17:44;98355.63;;;31.43;100.00
9905;BME280;4991;43.566;27.820;2023-08-31T11:20:19;98359.69;;;32.75;100.00
9905;BME280;4991;43.566;27.820;2023-08-31T11:22:49;98352.38;;;32.56;100.00
9905;BME280;4991;43.566;27.820;2023-08-31T11:25:16;98358.72;;;32.69;100.00
9905;BME280;4991;43.566;27.820;2023-08-31T11:27:53;98363.38;;;33.33;100.00
9905;BME280;4991;43.566;27.820;2023-08-31T11:30:18;98351.09;;;33.18;100.00
9905;BME280;4991;43.566;27.820;2023-08-31T11:32:49;98362.69;;;32.81;100.00
9905;BME280;4991;43.566;27.820;2023-08-31T11:35:16;98371.19;;;32.59;100.00
9905;BME280;4991;43.566;27.820;2023-08-31T11:37:50;98361.69;;;32.96;100.00
9905;BME280;4991;43.566;27.820;2023-08-31T11:40:16;98368.34;;;33.60;100.00
9905;BME280;4991;43.566;27.820;2023-08-31T11:42:42;98369.31;;;33.66;100.00
9905;BME280;4991;43.566;27.820;2023-08-31T11:45:11;98372.63;;;33.82;100.00
9905;BME280;4991;43.566;27.820;2023-08-31T11:47:41;98367.22;;;33.48;100.00
9905;BME280;4991;43.566;27.820;2023-08-31T11:50:10;98370.31;;;34.17;100.00
9905;BME280;4991;43.566;27.820;2023-08-31T11:52:37;98371.31;;;34.92;100.00
9905;BME280;4991;43.566;27.820;2023-08-31T11:55:10;98385.25;;;35.04;100.00
9905;BME280;4991;43.566;27.820;2023-08-31T11:57:37;98374.31;;;35.21;100.00
9905;BME280;4991;43.566;27.820;2023-08-31T12:00:04;98373.50;;;36.24;100.00
9905;BME280;4991;43.566;27.820;2023-08-31T12:02:38;98385.88;;;36.50;100.00
9905;BME280;4991;43.566;27.820;2023-08-31T12:05:05;98381.38;;;36.58;100.00
9905;BME280;4991;43.566;27.820;2023-08-31T12:07:39;98366.69;;;37.18;100.00
9905;BME280;4991;43.566;27.820;2023-08-31T12:10:06;98369.72;;;37.64;100.00
9905;BME280;4991;43.566;27.820;2023-08-31T12:12:33;98371.41;;;37.06;100.00
9905;BME280;4991;43.566;27.820;2023-08-31T12:15:01;98366.53;;;36.78;100.00
9905;BME280;4991;43.566;27.820;2023-08-31T12:17:31;98360.69;;;36.81;100.00
9905;BME280;4991;43.566;27.820;2023-08-31T12:20:04;98358.72;;;36.20;100.00
9905;BME280;4991;43.566;27.820;2023-08-31T12:22:33;98348.91;;;36.59;100.00
9905;BME280;4991;43.566;27.820;2023-08-31T12:25:00;98354.75;;;37.14;100.00
9905;BME280;4991;43.566;27.820;2023-08-31T12:27:26;98355.16;;;36.34;100.00
9905;BME280;4991;43.566;27.820;2023-08-31T12:29:52;98368.72;;;35.45;100.00
9905;BME280;4991;43.566;27.820;2023-08-31T12:32:19;98361.38;;;35.29;100.00
9905;BME280;4991;43.566;27.820;2023-08-31T12:34:44;98367.16;;;34.42;100.00
9905;BME280;4991;43.566;27.820;2023-08-31T12:37:11;98362.28;;;34.07;100.00
9905;BME280;4991;43.566;27.820;2023-08-31T12:39:37;98360.81;;;33.75;100.00
9905;BME280;4991;43.566;27.820;2023-08-31T12:42:04;98363.31;;;33.46;100.00
9905;BME280;4991;43.566;27.820;2023-08-31T12:44:30;98367.28;;;33.18;100.00
9905;BME280;4991;43.566;27.820;2023-08-31T12:46:57;98372.44;;;32.58;100.00
9905;BME280;4991;43.566;27.820;2023-08-31T12:49:24;98375.59;;;32.60;100.00
9905;BME280;4991;43.566;27.820;2023-08-31T12:51:50;98374.22;;;32.21;100.00
9905;BME280;4991;43.566;27.820;2023-08-31T12:54:19;98372.91;;;32.56;100.00
9905;BME280;4991;43.566;27.820;2023-08-31T12:56:44;98357.44;;;32.39;100.00
9905;BME280;4991;43.566;27.820;2023-08-31T12:59:10;98362.03;;;32.46;100.00
9905;BME280;4991;43.566;27.820;2023-08-31T13:01:37;98359.19;;;32.03;100.00
9905;BME280;4991;43.566;27.820;2023-08-31T13:04:03;98367.25;;;32.13;100.00
9905;BME280;4991;43.566;27.820;2023-08-31T13:06:30;98368.97;;;33.15;100.00
9905;BME280;4991;43.566;27.820;2023-08-31T13:08:56;98360.41;;;34.99;100.00
9905;BME280;4991;43.566;27.820;2023-08-31T13:11:22;98344.75;;;36.16;100.00
9905;BME280;4991;43.566;27.820;2023-08-31T13:13:51;98354.25;;;37.15;100.00
9905;BME280;4991;43.566;27.820;2023-08-31T13:16:17;98358.72;;;37.71;100.00